Tunker, Indiana
Current Conditions -  °F | °C
As of 3:55 PM on Tuesday 21 Oct 2014 (Local Time) from KHHG Reporting Station
Overcast Overcast  
Wind Chill: 11°   Ceiling: 4500
Heat Index: 11°   Visibility: 10mi
Dew Point:   Wind: 12mph
Humidity: 70%   Direction: 350°N
Pressure: 30.1"   Gusts: 16mph
Location:  41.056°N, 85.6112°W
Report Text: KHHG 211955Z AUTO 35010G14KT 10SM SCT025 OVC045 11/06 A3010 RMK AO2 T01110059
Loading
Personal Weather Stations






























Interactive Weather Map
Tropical Storm Tracking
New forecast layout! Learn more

10-Day Weather Forecast

Advertisements
Track Severe Weather on mobile